Aviation Weather Forecast

Aviation Weather Forecast (8)

Aviation weather forecast
 

Children categories

Pilot Briefing (3)
Pilot Briefing
STATION WIND VISIBILITY

PRESET WEATHER

LOWEST LAYER HIGHER LAYER TEMP QNH

Pilot Briefing

TIME:0000 AM HOURS LOCAL DATE: 00/09/2015 ISSUING OFFICER: MET ISSUE TIME:0000LCL

TARO              
MUNDA              
AUKI              
LATA S/CRUZ              
TINGOA              
HONIARA              
HENDERSON AIRPORT              

 

View items...

Aviation Weather Forecast provides the following reports.

  1. Pilot Briefing information
  2. Weather Reports
Last modified on Tuesday, 12 May 2015 10:01

NIL

 

 

 

 

Last modified on Saturday, 28 October 2017 20:21

      

Not Available

 

 

Last modified on Monday, 31 October 2016 16:34

FASO40 AGGG    
221754 AREA FORECAST FOR SOLOMON ISLANDS VALID FEBRUARY 221900UTC TO 231000UTC 2018. 

OVERVIEW: SCATTERED SHOWERS AND ISOLATED THUNDERSTORMS. 

UPPER WINDS: (SPEED IN KNOTS)
               FL020    VRB05
               FL050    09010
               FL070    09010
               FL100    11010
               FL140    11010
               FL180    07010
          
CLOUD:   ISOL CB 1600/45000
                  SCT CU 1500/30000 BKN IN PRECIP
                  SCT SC 3000/8000 BKN IN PRECIP
                  BKN ACAS 10000/14000 

SIG WX: TSSH, SHRA

VIS: 30 KM, 5000M IN TSSH/SHRA

Last modified on Friday, 23 February 2018 04:56

FTSO31 AGGG 230510
TAF AGGH 230510Z 2306/2406 VRB03KT 9999 FEW017
PROB30 INTER 2306/2310 5000 TSSH SCT016 FEW018CB
T 29 28 27 25 Q 1008 1010 1011 1009=  

TAF AGGM 230510Z 2306/2406 VRB03KT 9999 FEW017 SCT026  
PROB30 INTER 2306/2310 5000 TSSH SCT016 FEW017CB
Q 1007 1009 1010 1008= 

TAF AGGN 230510Z 2306/2406 VRB03KT 9999 FEW018 SCT026  
PROB30 INTER 2306/2310 5000 TSSH SCT016 FEW017CB
Q 1007 1009 1010 1008= 

 

Last modified on Friday, 23 February 2018 16:12

Weather Outlook

Support and Docs

Modern Design
Go to top